Terminal Aerodrome Forecast
Issued by NWS

Home | Current Version | Previous Version | Graphics & Text | Print | Product List | Glossary On
Versions: 1 2 3 4 5 6 7 8 9 10 11 12 13 14 15 16 17 18 19 20 21
000
FTUS43 KGRB 242300
TAFCWA
TAF
KCWA 242320Z 2500/2524 12008KT P6SM SCT100 BKN250
     FM250400 10008KT 4SM -SN SCT015 OVC025
     FM250700 10007KT 1 1/2SM -SN OVC004
      TEMPO 2508/2512 3/4SM -SN OVC002
     FM251300 25007KT P6SM OVC006
     FM251700 25012KT P6SM BKN012
     FM251900 24012G18KT P6SM SCT015 BKN070
      AMD LTD TO CLD VIS AND WIND 2503/2511=

USA.gov is the U.S. government's official web portal to all federal, state and local government web resources and services.